Time;durP1;ratioP1;P1;durP2;ratioP2;P2;SDS_P1;SDS_P2;PMS_P1;PMS_P2;Temp;Humidity;BMP_temperature;BMP_pressure;BME280_temperature;BME280_humidity;BME280_pressure;Samples;Min_cycle;Max_cycle;Signal;HPM_P1;HPM_P2
2021/01/17 00:00:55;;;;;;;;;;;;;;;1.93;79.10;99027.28;4988247;28;19917;-81
2021/01/17 00:03:21;;;;;;;;;;;;;;;1.88;80.60;99021.34;4988165;28;19953;-81
2021/01/17 00:05:47;;;;;;;;;;;;;;;2.16;80.33;99026.50;5003811;28;20363;-82
2021/01/17 00:08:13;;;;;;;;;;;;;;;2.11;79.11;99029.03;4987907;28;19918;-81
2021/01/17 00:10:38;;;;;;;;;;;;;;;2.20;78.08;99023.13;4987733;28;19922;-81
2021/01/17 00:13:04;;;;;;;;;;;;;;;1.91;79.80;99016.28;5004202;28;20020;-82
2021/01/17 00:15:29;;;;;;;;;;;;;;;2.29;77.98;99011.28;4988383;28;19917;-82
2021/01/17 00:17:55;;;;;;;;;;;;;;;2.97;77.17;99013.00;4987876;28;20004;-82
2021/01/17 00:20:21;;;;;;;;;;;;;;;1.75;80.41;99017.06;5003265;28;19925;-82
2021/01/17 00:22:46;;;;;;;;;;;;;;;1.90;80.00;99009.53;4995095;28;19949;-82
2021/01/17 00:25:17;;;;;;;;;;;;;;;1.32;81.94;99005.03;4987206;28;19963;-82
2021/01/17 00:27:42;;;;;;;;;;;;;;;2.34;79.09;99001.13;5004053;28;19918;-82
2021/01/17 00:30:08;;;;;;;;;;;;;;;2.19;77.56;99006.19;4971113;28;19922;-82
2021/01/17 00:32:34;;;;;;;;;;;;;;;1.82;79.85;98994.25;5003332;28;19925;-82
2021/01/17 00:35:01;;;;;;;;;;;;;;;2.05;80.81;98996.88;4987391;28;19921;-82
2021/01/17 00:37:26;;;;;;;;;;;;;;;1.96;80.30;98991.78;4999002;28;19932;-82
2021/01/17 00:39:51;;;;;;;;;;;;;;;2.08;79.65;98988.41;4984398;28;19926;-81
2021/01/17 00:42:17;;;;;;;;;;;;;;;1.30;81.09;98980.50;4984223;28;19928;-82
2021/01/17 00:44:42;;;;;;;;;;;;;;;1.85;80.93;98985.81;4985048;28;19917;-81
2021/01/17 00:47:12;;;;;;;;;;;;;;;1.67;81.44;98978.97;4982851;28;20399;-81
2021/01/17 00:49:37;;;;;;;;;;;;;;;1.67;81.40;98982.34;4984467;28;19924;-82
2021/01/17 00:52:03;;;;;;;;;;;;;;;2.32;79.34;98971.47;4968646;28;19922;-82
2021/01/17 00:54:28;;;;;;;;;;;;;;;1.66;82.10;98965.41;4984138;28;19926;-81
2021/01/17 00:56:53;;;;;;;;;;;;;;;1.55;81.67;98968.75;4967777;28;19925;-82
2021/01/17 00:59:18;;;;;;;;;;;;;;;1.14;82.40;98970.28;4984945;28;19917;-81
2021/01/17 01:01:44;;;;;;;;;;;;;;;1.41;81.87;98969.56;4967777;28;19918;-82
2021/01/17 01:04:11;;;;;;;;;;;;;;;1.68;80.84;98963.72;4984439;28;19997;-82
2021/01/17 01:06:36;;;;;;;;;;;;;;;1.31;81.54;98956.84;4983654;28;19942;-82
2021/01/17 01:09:06;;;;;;;;;;;;;;;0.91;83.16;98949.00;4985081;28;19922;-82
2021/01/17 01:11:31;;;;;;;;;;;;;;;1.08;81.93;98944.06;4983188;28;19921;-81
2021/01/17 01:13:56;;;;;;;;;;;;;;;1.30;82.02;98947.53;4967197;28;20292;-83
2021/01/17 01:16:22;;;;;;;;;;;;;;;1.72;81.22;98954.44;4966830;28;19972;-84
2021/01/17 01:18:47;;;;;;;;;;;;;;;1.66;80.98;98949.34;4967220;28;20060;-85
2021/01/17 01:21:13;;;;;;;;;;;;;;;1.17;81.53;98950.00;4966594;28;20004;-84
2021/01/17 01:23:38;;;;;;;;;;;;;;;1.38;80.94;98950.94;4967019;28;20012;-86
2021/01/17 01:26:03;;;;;;;;;;;;;;;1.39;81.66;98947.56;4967181;28;20021;-86
2021/01/17 01:28:29;;;;;;;;;;;;;;;1.84;80.22;98943.47;4982765;28;20554;-83
2021/01/17 01:30:54;;;;;;;;;;;;;;;1.97;78.97;98946.91;4967335;28;19922;-83
2021/01/17 01:33:20;;;;;;;;;;;;;;;1.90;80.05;98940.94;4983129;28;19929;-82
2021/01/17 01:35:46;;;;;;;;;;;;;;;1.24;81.16;98935.66;4983108;28;19926;-81
2021/01/17 01:38:11;;;;;;;;;;;;;;;1.36;81.56;98935.72;4966828;28;19933;-84
2021/01/17 01:40:36;;;;;;;;;;;;;;;1.87;81.04;98939.25;4982638;28;19965;-85
2021/01/17 01:43:02;;;;;;;;;;;;;;;1.74;80.02;98936.69;4966753;28;20899;-84
2021/01/17 01:45:27;;;;;;;;;;;;;;;1.78;79.69;98933.28;4982652;28;19975;-84
2021/01/17 01:47:52;;;;;;;;;;;;;;;1.71;80.25;98932.47;4982417;28;19929;-84
2021/01/17 01:50:19;;;;;;;;;;;;;;;1.98;80.02;98934.19;4983280;28;19941;-81
2021/01/17 01:52:44;;;;;;;;;;;;;;;2.27;79.12;98933.38;4965932;28;19940;-84
2021/01/17 01:55:10;;;;;;;;;;;;;;;2.01;78.85;98933.38;4983194;28;19918;-85
2021/01/17 01:57:35;;;;;;;;;;;;;;;1.54;80.29;98939.16;4966467;28;19957;-85
2021/01/17 02:00:02;;;;;;;;;;;;;;;1.60;80.84;98945.09;4982760;28;19921;-82
2021/01/17 02:02:28;;;;;;;;;;;;;;;1.78;79.88;98939.25;4982402;28;19929;-82
2021/01/17 02:04:53;;;;;;;;;;;;;;;1.85;80.55;98935.88;4982431;28;19918;-85
2021/01/17 02:07:18;;;;;;;;;;;;;;;2.11;80.20;98929.13;4982216;28;19924;-81
2021/01/17 02:09:43;;;;;;;;;;;;;;;1.86;80.21;98931.63;4982651;28;19917;-82
2021/01/17 02:12:27;;;;;;;;;;;;;;;1.53;80.08;98933.25;4965205;28;19922;-86
2021/01/17 02:14:57;;;;;;;;;;;;;;;1.69;80.71;98936.69;4982042;28;19926;-80
2021/01/17 02:17:24;;;;;;;;;;;;;;;2.17;79.99;98936.75;4965663;28;20369;-80
2021/01/17 02:20:06;;;;;;;;;;;;;;;1.76;79.49;98929.94;4981795;28;19965;-86
2021/01/17 02:22:36;;;;;;;;;;;;;;;1.83;80.49;98929.94;4982507;28;19914;-82
2021/01/17 02:25:05;;;;;;;;;;;;;;;2.05;79.93;98930.81;4981932;28;19918;-82
2021/01/17 02:27:30;;;;;;;;;;;;;;;1.63;79.92;98932.41;4981385;28;19921;-85
2021/01/17 02:29:56;;;;;;;;;;;;;;;1.63;80.88;98927.34;4965922;28;19918;-84
2021/01/17 02:32:21;;;;;;;;;;;;;;;1.80;79.93;98937.56;4965398;28;19976;-83
2021/01/17 02:34:47;;;;;;;;;;;;;;;1.62;80.56;98927.31;4965989;28;20021;-82
2021/01/17 02:37:18;;;;;;;;;;;;;;;2.19;80.38;98929.97;4981617;28;20421;-81
2021/01/17 02:39:44;;;;;;;;;;;;;;;1.95;79.84;98928.25;4983668;28;19917;-85
2021/01/17 02:42:09;;;;;;;;;;;;;;;2.00;80.03;98932.50;4982536;28;19964;-82
2021/01/17 02:44:34;;;;;;;;;;;;;;;1.93;79.60;98928.25;4982698;28;19924;-82
2021/01/17 02:47:00;;;;;;;;;;;;;;;1.80;79.67;98931.59;4981856;28;19932;-86
2021/01/17 02:49:25;;;;;;;;;;;;;;;2.29;77.68;98927.44;4982332;28;19925;-82
2021/01/17 02:51:52;;;;;;;;;;;;;;;2.55;77.72;98940.97;4981024;28;19928;-82
2021/01/17 02:54:21;;;;;;;;;;;;;;;2.66;77.13;98936.75;4965826;28;19922;-85
2021/01/17 02:56:47;;;;;;;;;;;;;;;2.46;78.44;98944.38;4965284;28;19964;-82
2021/01/17 02:59:13;;;;;;;;;;;;;;;2.50;77.92;98936.75;4982133;28;19957;-83
2021/01/17 03:01:38;;;;;;;;;;;;;;;2.42;77.43;98952.88;4980631;28;19928;-81
2021/01/17 03:04:15;;;;;;;;;;;;;;;2.42;78.95;98945.25;4981646;28;19976;-84
2021/01/17 03:06:41;;;;;;;;;;;;;;;2.68;77.76;98950.28;4965739;28;19922;-82
2021/01/17 03:09:07;;;;;;;;;;;;;;;2.35;78.14;98946.94;4981448;28;19993;-80
2021/01/17 03:11:32;;;;;;;;;;;;;;;3.05;76.98;98947.69;4981874;28;19963;-83
2021/01/17 03:13:58;;;;;;;;;;;;;;;2.87;76.20;98946.91;4981506;28;19925;-84
2021/01/17 03:16:23;;;;;;;;;;;;;;;2.43;77.59;98945.22;4965967;28;20295;-81
2021/01/17 03:18:48;;;;;;;;;;;;;;;2.42;77.32;98948.63;4980722;28;19917;-84
2021/01/17 03:21:14;;;;;;;;;;;;;;;2.91;76.80;98947.72;4965648;28;21000;-83
2021/01/17 03:23:39;;;;;;;;;;;;;;;2.86;77.32;98945.19;4965283;28;20667;-80
2021/01/17 03:26:04;;;;;;;;;;;;;;;2.97;77.39;98941.78;4980801;28;19926;-85
2021/01/17 03:28:30;;;;;;;;;;;;;;;2.62;76.96;98940.13;4965026;28;19930;-82
2021/01/17 03:30:55;;;;;;;;;;;;;;;2.84;76.73;98938.41;4965527;28;20375;-82
2021/01/17 03:33:20;;;;;;;;;;;;;;;2.85;77.11;98940.97;4982121;28;19926;-82
2021/01/17 03:35:46;;;;;;;;;;;;;;;3.11;76.48;98929.88;4965493;28;20268;-81
2021/01/17 03:38:11;;;;;;;;;;;;;;;2.28;78.35;98935.03;4965529;28;19933;-81
2021/01/17 03:40:36;;;;;;;;;;;;;;;2.37;78.56;98935.03;4981619;28;19918;-82
2021/01/17 03:43:02;;;;;;;;;;;;;;;2.27;79.28;98933.38;4981841;28;20520;-81
2021/01/17 03:45:27;;;;;;;;;;;;;;;2.73;77.18;98929.09;4965370;28;19921;-82
2021/01/17 03:47:52;;;;;;;;;;;;;;;2.41;78.26;98924.03;4965217;28;19945;-82
2021/01/17 03:50:17;;;;;;;;;;;;;;;3.19;76.59;98914.56;4981706;28;19917;-81
2021/01/17 03:52:43;;;;;;;;;;;;;;;3.08;75.80;98924.75;4981245;28;19914;-82
2021/01/17 03:55:09;;;;;;;;;;;;;;;3.11;76.19;98915.44;4982092;28;20053;-81
2021/01/17 03:57:34;;;;;;;;;;;;;;;2.12;79.19;98918.09;4981553;28;21489;-81
2021/01/17 04:00:00;;;;;;;;;;;;;;;2.35;78.86;98913.91;4981454;28;19933;-81
2021/01/17 04:02:25;;;;;;;;;;;;;;;1.90;80.88;98918.09;4983131;28;19914;-81
2021/01/17 04:04:50;;;;;;;;;;;;;;;1.78;80.82;98906.22;4982105;28;19922;-82
2021/01/17 04:07:15;;;;;;;;;;;;;;;1.75;82.73;98913.81;4964978;28;19949;-82
2021/01/17 04:09:41;;;;;;;;;;;;;;;1.94;81.70;98911.31;4981246;28;19918;-81
2021/01/17 04:12:06;;;;;;;;;;;;;;;2.02;79.79;98910.47;4980575;28;19925;-82
2021/01/17 04:14:32;;;;;;;;;;;;;;;2.19;79.62;98914.72;4980305;28;20472;-82
2021/01/17 04:16:57;;;;;;;;;;;;;;;2.28;80.12;98909.63;4964871;28;20004;-81
2021/01/17 04:19:22;;;;;;;;;;;;;;;2.56;78.52;98914.72;4981312;28;19925;-81
2021/01/17 04:21:47;;;;;;;;;;;;;;;2.64;78.64;98910.47;4982157;28;19957;-81
2021/01/17 04:24:13;;;;;;;;;;;;;;;2.23;79.46;98913.88;4984538;28;20012;-81
2021/01/17 04:26:38;;;;;;;;;;;;;;;2.48;80.00;98907.09;4967604;28;19928;-82
2021/01/17 04:29:04;;;;;;;;;;;;;;;2.53;79.20;98914.72;4968492;28;20310;-81
2021/01/17 04:31:42;;;;;;;;;;;;;;;2.85;77.32;98905.34;4984811;28;19918;-81
2021/01/17 04:34:07;;;;;;;;;;;;;;;2.62;78.65;98905.41;4968867;28;20519;-82
2021/01/17 04:36:33;;;;;;;;;;;;;;;2.58;78.69;98907.91;4983898;28;19977;-82
2021/01/17 04:38:58;;;;;;;;;;;;;;;2.89;77.27;98914.66;4983889;28;20667;-82
2021/01/17 04:41:23;;;;;;;;;;;;;;;2.58;79.08;98915.53;4966789;28;19922;-81
2021/01/17 04:43:56;;;;;;;;;;;;;;;2.54;78.94;98912.19;4983633;28;19918;-81
2021/01/17 04:46:21;;;;;;;;;;;;;;;2.42;79.46;98918.13;4967042;28;19925;-82
2021/01/17 04:48:46;;;;;;;;;;;;;;;2.21;80.28;98907.94;4983595;28;20678;-82
2021/01/17 04:51:12;;;;;;;;;;;;;;;1.48;82.78;98913.75;4983904;28;20103;-81
2021/01/17 04:53:37;;;;;;;;;;;;;;;1.94;81.60;98922.34;4984101;28;20931;-82
2021/01/17 04:56:17;;;;;;;;;;;;;;;2.21;80.29;98918.13;4967125;28;19918;-81
2021/01/17 04:58:43;;;;;;;;;;;;;;;1.67;81.46;98918.06;4967179;28;19925;-82
2021/01/17 05:01:09;;;;;;;;;;;;;;;1.50;82.66;98925.59;4983877;28;19924;-82
2021/01/17 05:03:58;;;;;;;;;;;;;;;1.91;82.06;98931.63;4967529;28;20372;-82
2021/01/17 05:06:27;;;;;;;;;;;;;;;2.03;80.46;98919.81;4983657;28;19929;-82
2021/01/17 05:09:12;;;;;;;;;;;;;;;2.03;80.44;98919.81;4967649;28;20464;-82
2021/01/17 05:11:39;;;;;;;;;;;;;;;1.95;81.08;98918.94;4983553;28;19918;-82
2021/01/17 05:14:14;;;;;;;;;;;;;;;1.89;82.02;98921.47;4966210;28;20338;-82
2021/01/17 05:16:40;;;;;;;;;;;;;;;2.52;79.34;98918.97;4966611;28;20570;-82
2021/01/17 05:19:10;;;;;;;;;;;;;;;1.89;81.66;98916.38;4967340;28;19914;-81
2021/01/17 05:21:35;;;;;;;;;;;;;;;1.75;82.56;98918.91;4982812;28;20595;-82
2021/01/17 05:24:00;;;;;;;;;;;;;;;1.64;83.48;98926.50;4966566;28;19921;-83
2021/01/17 05:26:26;;;;;;;;;;;;;;;1.95;81.60;98921.47;4982277;28;20017;-82
2021/01/17 05:28:51;;;;;;;;;;;;;;;1.73;82.59;98919.75;4966714;28;19968;-82
2021/01/17 05:31:21;;;;;;;;;;;;;;;1.53;83.35;98922.22;4981806;28;19967;-82
2021/01/17 05:33:46;;;;;;;;;;;;;;;1.44;84.50;98933.22;4981871;28;19922;-83
2021/01/17 05:36:15;;;;;;;;;;;;;;;1.99;82.47;98923.19;4982172;28;19925;-81
2021/01/17 05:38:41;;;;;;;;;;;;;;;1.96;81.69;98938.44;4966008;28;19972;-82
2021/01/17 05:41:06;;;;;;;;;;;;;;;2.55;79.95;98933.34;4982690;28;19922;-82
2021/01/17 05:43:31;;;;;;;;;;;;;;;3.06;77.74;98934.13;4965865;28;19922;-82
2021/01/17 05:45:57;;;;;;;;;;;;;;;1.90;81.43;98938.41;4966895;28;19944;-82
2021/01/17 05:48:22;;;;;;;;;;;;;;;2.16;81.21;98940.13;4982142;28;19929;-81
2021/01/17 05:50:47;;;;;;;;;;;;;;;2.06;81.33;98937.59;4966060;28;20846;-82
2021/01/17 05:53:13;;;;;;;;;;;;;;;2.85;78.50;98935.88;4982358;28;19917;-82
2021/01/17 05:55:44;;;;;;;;;;;;;;;2.69;79.78;98945.22;4983180;28;20092;-82
2021/01/17 05:58:30;;;;;;;;;;;;;;;1.73;81.78;98940.06;4982717;28;20037;-83
2021/01/17 06:00:56;;;;;;;;;;;;;;;1.72;82.87;98933.28;4966758;28;19922;-82
2021/01/17 06:03:44;;;;;;;;;;;;;;;1.63;83.18;98937.50;4982515;28;19933;-80
2021/01/17 06:06:10;;;;;;;;;;;;;;;2.22;80.27;98935.06;4980673;28;19941;-80
2021/01/17 06:08:35;;;;;;;;;;;;;;;2.05;81.58;98928.28;4978417;28;19922;-80
2021/01/17 06:11:07;;;;;;;;;;;;;;;2.33;80.60;98935.91;4962017;28;19934;-81
2021/01/17 06:13:33;;;;;;;;;;;;;;;1.99;81.97;98938.44;4962249;28;19933;-81
2021/01/17 06:15:58;;;;;;;;;;;;;;;2.51;78.82;98943.53;4962232;28;19918;-80
2021/01/17 06:18:23;;;;;;;;;;;;;;;1.99;82.13;98942.66;4962077;28;19972;-81
2021/01/17 06:20:56;;;;;;;;;;;;;;;2.12;80.91;98943.50;4962871;28;20016;-80
2021/01/17 06:23:22;;;;;;;;;;;;;;;2.49;79.78;98934.22;4962051;28;19928;-81
2021/01/17 06:26:00;;;;;;;;;;;;;;;2.28;80.73;98945.22;4962311;28;19917;-80
2021/01/17 06:28:35;;;;;;;;;;;;;;;2.06;81.35;98942.66;4962133;28;20044;-82
2021/01/17 06:31:00;;;;;;;;;;;;;;;2.32;80.48;98946.91;4963161;28;19988;-81
2021/01/17 06:33:25;;;;;;;;;;;;;;;2.07;81.63;98948.59;4978551;28;19925;-81
2021/01/17 06:35:51;;;;;;;;;;;;;;;2.74;78.86;98952.84;4978281;28;20763;-82
2021/01/17 06:38:17;;;;;;;;;;;;;;;3.09;77.86;98951.91;4962011;28;19929;-80
2021/01/17 06:40:43;;;;;;;;;;;;;;;3.42;76.58;98950.09;4962272;28;19929;-81
2021/01/17 06:43:09;;;;;;;;;;;;;;;3.04;77.53;98961.28;4977694;28;19928;-80
2021/01/17 06:45:41;;;;;;;;;;;;;;;2.51;78.74;98961.34;4977536;28;19917;-83
2021/01/17 06:48:07;;;;;;;;;;;;;;;1.99;81.06;98957.91;4961704;28;19918;-82
2021/01/17 06:50:32;;;;;;;;;;;;;;;2.81;78.85;98957.06;4961909;28;20783;-81
2021/01/17 06:52:58;;;;;;;;;;;;;;;2.46;79.81;98954.53;4978303;28;19918;-79
2021/01/17 06:55:23;;;;;;;;;;;;;;;2.11;80.53;98964.69;4961062;28;20040;-80
2021/01/17 06:57:48;;;;;;;;;;;;;;;2.48;79.82;98963.84;4961835;28;20368;-83
2021/01/17 07:00:14;;;;;;;;;;;;;;;2.32;80.58;98963.88;4961301;28;20506;-80
2021/01/17 07:02:40;;;;;;;;;;;;;;;1.95;81.52;98977.34;4978106;28;19946;-79
2021/01/17 07:05:17;;;;;;;;;;;;;;;2.47;79.79;98974.88;4961330;28;19957;-80
2021/01/17 07:08:01;;;;;;;;;;;;;;;2.67;79.45;98968.97;4976702;28;20620;-81
2021/01/17 07:10:26;;;;;;;;;;;;;;;2.25;80.23;98983.34;4977324;28;19972;-80
2021/01/17 07:13:04;;;;;;;;;;;;;;;2.41;79.37;98981.66;4959614;28;19922;-79
2021/01/17 07:15:30;;;;;;;;;;;;;;;2.22;81.05;98984.19;4961282;28;20372;-80
2021/01/17 07:18:00;;;;;;;;;;;;;;;2.85;78.51;98981.66;4976780;28;20028;-79
2021/01/17 07:20:27;;;;;;;;;;;;;;;2.51;79.93;98983.38;4976428;28;19932;-79
2021/01/17 07:22:52;;;;;;;;;;;;;;;1.66;81.44;98985.72;4960584;28;19918;-81
2021/01/17 07:25:18;;;;;;;;;;;;;;;2.90;78.96;98992.66;4977414;28;20008;-82
2021/01/17 07:27:55;;;;;;;;;;;;;;;2.77;79.07;98992.69;4976139;28;19922;-79
2021/01/17 07:30:21;;;;;;;;;;;;;;;3.41;76.65;98995.09;4976661;28;19944;-81
2021/01/17 07:32:54;;;;;;;;;;;;;;;2.30;80.38;98996.88;4977722;28;19985;-80
2021/01/17 07:35:22;;;;;;;;;;;;;;;2.19;80.65;99004.50;4976686;28;20466;-80
2021/01/17 07:37:47;;;;;;;;;;;;;;;2.60;78.77;99005.38;4977805;28;19926;-82
2021/01/17 07:40:12;;;;;;;;;;;;;;;2.22;79.82;99011.28;4961186;28;19917;-81
2021/01/17 07:42:38;;;;;;;;;;;;;;;2.27;79.95;99023.13;4977469;28;20384;-80
2021/01/17 07:45:30;;;;;;;;;;;;;;;2.61;79.42;99025.72;4961424;28;19946;-79
2021/01/17 07:47:55;;;;;;;;;;;;;;;2.14;80.92;99028.19;4977214;28;19917;-80
2021/01/17 07:50:20;;;;;;;;;;;;;;;2.15;80.88;99029.91;4976693;28;19940;-80
2021/01/17 07:52:52;;;;;;;;;;;;;;;2.41;79.87;99030.78;4961186;28;19921;-81
2021/01/17 07:55:17;;;;;;;;;;;;;;;2.14;80.46;99038.34;4949515;28;19918;-81
2021/01/17 07:57:46;;;;;;;;;;;;;;;2.06;80.92;99040.88;4982669;28;19921;-83
2021/01/17 08:00:12;;;;;;;;;;;;;;;2.05;81.89;99032.44;4981460;28;19926;-84
2021/01/17 08:02:37;;;;;;;;;;;;;;;2.33;80.58;99040.09;4985410;28;20005;-81
2021/01/17 08:05:02;;;;;;;;;;;;;;;1.63;82.63;99040.72;4968378;28;19918;-81
2021/01/17 08:07:31;;;;;;;;;;;;;;;1.61;82.83;99053.41;4984258;28;20964;-80
2021/01/17 08:09:57;;;;;;;;;;;;;;;2.15;81.92;99047.69;4968691;28;20867;-85
2021/01/17 08:12:36;;;;;;;;;;;;;;;2.02;82.07;99050.19;4970248;28;20009;-87
2021/01/17 08:15:11;;;;;;;;;;;;;;;1.54;83.21;99051.69;4968476;28;19926;-83
2021/01/17 08:17:36;;;;;;;;;;;;;;;1.98;81.45;99053.53;4986615;28;19921;-85
2021/01/17 08:20:02;;;;;;;;;;;;;;;2.13;81.28;99051.91;4984573;28;19918;-83
2021/01/17 08:22:28;;;;;;;;;;;;;;;2.57;80.48;99046.06;4968675;28;19933;-84
2021/01/17 08:24:57;;;;;;;;;;;;;;;2.45;79.19;99052.81;4984645;28;19918;-82
2021/01/17 08:27:32;;;;;;;;;;;;;;;2.56;79.51;99049.47;4984493;28;19988;-80
2021/01/17 08:30:00;;;;;;;;;;;;;;;2.50;80.01;99047.75;4980958;28;20019;-86
2021/01/17 08:32:28;;;;;;;;;;;;;;;2.73;79.70;99046.06;4984046;28;19922;-86
2021/01/17 08:34:54;;;;;;;;;;;;;;;2.02;80.62;99049.34;4985812;28;19921;-86
2021/01/17 08:37:19;;;;;;;;;;;;;;;2.14;81.33;99053.59;4968023;28;19940;-82
2021/01/17 08:39:45;;;;;;;;;;;;;;;2.45;79.71;99050.28;4985876;28;19928;-83
2021/01/17 08:42:27;;;;;;;;;;;;;;;2.13;81.52;99052.75;4982707;28;20858;-88
2021/01/17 08:44:52;;;;;;;;;;;;;;;3.17;77.92;99046.91;4967023;28;19968;-86
2021/01/17 08:47:21;;;;;;;;;;;;;;;3.61;76.33;99048.50;4967089;28;19922;-83
2021/01/17 08:49:47;;;;;;;;;;;;;;;3.25;77.86;99052.81;4967654;28;19918;-84
2021/01/17 08:52:12;;;;;;;;;;;;;;;2.69;78.65;99053.69;4984066;28;19980;-80
2021/01/17 08:54:48;;;;;;;;;;;;;;;2.95;77.93;99048.63;4983187;28;20032;-82
2021/01/17 08:57:32;;;;;;;;;;;;;;;3.42;76.18;99059.56;4967026;28;20040;-82
2021/01/17 08:59:57;;;;;;;;;;;;;;;3.01;77.43;99055.38;4989546;28;20016;-83
2021/01/17 09:02:22;;;;;;;;;;;;;;;3.17;77.99;99062.19;4983326;28;20514;-85
2021/01/17 09:04:48;;;;;;;;;;;;;;;3.92;74.70;99064.53;4983513;28;19925;-83
2021/01/17 09:07:29;;;;;;;;;;;;;;;3.87;74.65;99065.38;4981903;28;19936;-87
2021/01/17 09:10:05;;;;;;;;;;;;;;;4.44;73.85;99062.53;4978883;28;20423;-82
2021/01/17 09:12:30;;;;;;;;;;;;;;;3.53;76.61;99070.56;4967694;28;19917;-81
2021/01/17 09:14:55;;;;;;;;;;;;;;;2.96;76.84;99075.72;4982462;28;20339;-89
2021/01/17 09:17:20;;;;;;;;;;;;;;;3.52;75.80;99068.91;4968463;28;19925;-83
2021/01/17 09:19:46;;;;;;;;;;;;;;;3.37;76.07;99071.47;4969912;28;20299;-83
2021/01/17 09:22:11;;;;;;;;;;;;;;;3.68;75.70;99075.63;4968546;28;19924;-81
2021/01/17 09:24:37;;;;;;;;;;;;;;;3.34;77.44;99070.63;4985688;28;19925;-84
2021/01/17 09:27:03;;;;;;;;;;;;;;;3.14;77.33;99082.50;4986106;28;19918;-84
2021/01/17 09:29:36;;;;;;;;;;;;;;;3.62;77.49;99087.53;4967482;28;19925;-86
2021/01/17 09:32:01;;;;;;;;;;;;;;;3.67;76.97;99086.69;4982791;28;19976;-84
2021/01/17 09:34:27;;;;;;;;;;;;;;;3.61;75.31;99094.34;4984334;28;19925;-81
2021/01/17 09:36:53;;;;;;;;;;;;;;;4.07;75.32;99094.16;4983499;28;19933;-82
2021/01/17 09:39:28;;;;;;;;;;;;;;;5.25;71.39;99095.09;4984490;28;19922;-84
2021/01/17 09:41:54;;;;;;;;;;;;;;;5.19;71.50;99105.34;4984868;28;19944;-81
2021/01/17 09:44:19;;;;;;;;;;;;;;;4.46;72.47;99107.56;4973295;28;19918;-83
2021/01/17 09:46:44;;;;;;;;;;;;;;;4.80;73.79;99117.56;4985506;28;19922;-82
2021/01/17 09:49:10;;;;;;;;;;;;;;;4.67;72.26;99126.16;4988923;28;19992;-82
2021/01/17 09:51:35;;;;;;;;;;;;;;;4.89;73.05;99120.06;4987420;28;20009;-80
2021/01/17 09:54:00;;;;;;;;;;;;;;;4.57;74.08;99131.31;4983822;28;20470;-83
2021/01/17 09:56:25;;;;;;;;;;;;;;;5.11;72.31;99137.75;4967954;28;19968;-83
2021/01/17 09:58:51;;;;;;;;;;;;;;;5.37;71.03;99125.63;4968004;28;19937;-83
2021/01/17 10:01:19;;;;;;;;;;;;;;;4.88;72.51;99127.72;4969679;28;19918;-83
2021/01/17 10:03:45;;;;;;;;;;;;;;;5.62;71.18;99125.41;4985403;28;19922;-84
2021/01/17 10:06:11;;;;;;;;;;;;;;;5.82;69.75;99123.47;4983836;28;19921;-83
2021/01/17 10:08:36;;;;;;;;;;;;;;;4.73;74.28;99132.06;4985813;28;19918;-83
2021/01/17 10:11:01;;;;;;;;;;;;;;;4.75;74.02;99134.63;4984185;28;20722;-80
2021/01/17 10:13:27;;;;;;;;;;;;;;;4.68;74.24;99138.06;4984638;28;20008;-82
2021/01/17 10:15:52;;;;;;;;;;;;;;;4.66;75.42;99134.69;4981881;28;19917;-84
2021/01/17 10:18:22;;;;;;;;;;;;;;;5.28;73.17;99135.06;4985098;28;20272;-82
2021/01/17 10:20:47;;;;;;;;;;;;;;;5.65;72.55;99141.53;4982924;28;19928;-83
2021/01/17 10:23:12;;;;;;;;;;;;;;;5.43;72.04;99140.06;4968759;28;20012;-83
2021/01/17 10:25:38;;;;;;;;;;;;;;;6.06;70.52;99142.00;4968089;28;19960;-85
2021/01/17 10:28:04;;;;;;;;;;;;;;;5.56;72.00;99140.78;4985174;28;20012;-85
2021/01/17 10:30:31;;;;;;;;;;;;;;;5.13;73.14;99141.13;4984255;28;19949;-80
2021/01/17 10:33:01;;;;;;;;;;;;;;;5.09;73.60;99152.25;4983964;28;19929;-81
2021/01/17 10:35:26;;;;;;;;;;;;;;;5.60;72.55;99153.50;4998717;28;20291;-86
2021/01/17 10:37:51;;;;;;;;;;;;;;;5.41;73.11;99152.00;4987038;28;19918;-85
2021/01/17 10:40:26;;;;;;;;;;;;;;;5.43;72.07;99151.13;4987841;28;20008;-85
2021/01/17 10:42:52;;;;;;;;;;;;;;;5.31;72.81;99152.91;4987132;28;19928;-84
2021/01/17 10:45:17;;;;;;;;;;;;;;;4.91;74.49;99154.06;4986503;28;19917;-83
2021/01/17 10:47:44;;;;;;;;;;;;;;;4.89;74.20;99158.34;4984734;28;19917;-84
2021/01/17 10:50:11;;;;;;;;;;;;;;;4.82;75.41;99149.03;5000655;28;20377;-82
2021/01/17 10:52:40;;;;;;;;;;;;;;;4.61;76.32;99152.56;4986003;28;19925;-83
2021/01/17 10:55:06;;;;;;;;;;;;;;;4.91;77.08;99150.69;4982409;28;19921;-83
2021/01/17 10:57:31;;;;;;;;;;;;;;;4.87;75.92;99152.38;4981916;28;19945;-83
2021/01/17 10:59:56;;;;;;;;;;;;;;;5.62;72.96;99150.94;4984366;28;19941;-83
2021/01/17 11:02:22;;;;;;;;;;;;;;;4.94;74.79;99146.38;4983216;28;19932;-83
2021/01/17 11:04:48;;;;;;;;;;;;;;;4.72;75.74;99152.47;4966737;28;19955;-83
2021/01/17 11:07:13;;;;;;;;;;;;;;;4.16;77.82;99154.47;4998920;28;19940;-83
2021/01/17 11:09:38;;;;;;;;;;;;;;;4.79;76.41;99151.59;4999517;28;19917;-83
2021/01/17 11:12:04;;;;;;;;;;;;;;;4.90;75.86;99162.56;4974386;28;20287;-82
2021/01/17 11:14:33;;;;;;;;;;;;;;;3.82;79.82;99154.56;4983544;28;19926;-83
2021/01/17 11:16:58;;;;;;;;;;;;;;;4.60;78.45;99161.88;4981159;28;19918;-83
2021/01/17 11:19:40;;;;;;;;;;;;;;;5.57;74.41;99152.72;4983962;28;20012;-82
2021/01/17 11:22:06;;;;;;;;;;;;;;;5.51;73.53;99162.97;4999609;28;19921;-83
2021/01/17 11:24:38;;;;;;;;;;;;;;;5.23;74.52;99165.75;4984369;28;19917;-82
2021/01/17 11:27:08;;;;;;;;;;;;;;;4.46;77.65;99166.22;4998119;28;20545;-82
2021/01/17 11:29:33;;;;;;;;;;;;;;;3.91;80.57;99167.25;4999649;28;19925;-83
2021/01/17 11:31:58;;;;;;;;;;;;;;;3.76;81.41;99165.63;5002134;28;20386;-83
2021/01/17 11:34:24;;;;;;;;;;;;;;;4.63;78.47;99166.16;5003543;28;19950;-82
2021/01/17 11:36:56;;;;;;;;;;;;;;;5.89;73.95;99169.44;4973966;28;20012;-81
2021/01/17 11:39:21;;;;;;;;;;;;;;;5.66;74.88;99165.41;4982443;28;19971;-81
2021/01/17 11:41:46;;;;;;;;;;;;;;;5.09;75.40;99162.47;4983731;28;20835;-81
2021/01/17 11:44:16;;;;;;;;;;;;;;;5.02;76.24;99164.22;4968068;28;19921;-81
2021/01/17 11:46:42;;;;;;;;;;;;;;;5.82;72.87;99159.25;4984482;28;19933;-82
2021/01/17 11:49:07;;;;;;;;;;;;;;;4.82;76.20;99161.78;4984567;28;19925;-83
2021/01/17 11:51:33;;;;;;;;;;;;;;;4.61;77.66;99157.66;4969368;28;19922;-83
2021/01/17 11:54:09;;;;;;;;;;;;;;;4.59;77.45;99160.22;4965066;28;19922;-83
2021/01/17 11:56:36;;;;;;;;;;;;;;;5.11;76.83;99153.06;4981451;28;20939;-85
2021/01/17 11:59:01;;;;;;;;;;;;;;;5.12;76.00;99159.88;4981305;28;19984;-83
2021/01/17 12:01:27;;;;;;;;;;;;;;;4.50;79.29;99164.53;4981252;28;20367;-83
2021/01/17 12:04:00;;;;;;;;;;;;;;;4.61;78.82;99163.59;4981249;28;19918;-83
2021/01/17 12:06:25;;;;;;;;;;;;;;;5.35;75.80;99157.16;4981122;28;19972;-83
2021/01/17 12:08:57;;;;;;;;;;;;;;;4.48;78.71;99167.06;4982132;28;19953;-84
2021/01/17 12:11:41;;;;;;;;;;;;;;;5.23;75.57;99158.09;4983691;28;19922;-83
2021/01/17 12:14:07;;;;;;;;;;;;;;;5.11;76.10;99153.94;4981414;28;20032;-83
2021/01/17 12:16:34;;;;;;;;;;;;;;;5.68;74.87;99160.25;4980298;28;19968;-83
2021/01/17 12:19:00;;;;;;;;;;;;;;;5.65;74.58;99161.13;4965937;28;19925;-83
2021/01/17 12:21:26;;;;;;;;;;;;;;;5.15;77.59;99164.94;4969009;28;19921;-84
2021/01/17 12:23:52;;;;;;;;;;;;;;;6.17;72.77;99155.50;4982227;28;19925;-85
2021/01/17 12:26:17;;;;;;;;;;;;;;;5.90;73.10;99161.72;4967121;28;20016;-84
2021/01/17 12:28:43;;;;;;;;;;;;;;;5.32;75.43;99150.34;4982724;28;20366;-84
2021/01/17 12:31:09;;;;;;;;;;;;;;;3.93;80.64;99147.72;4966187;28;19987;-83
2021/01/17 12:33:34;;;;;;;;;;;;;;;4.36;79.89;99141.63;4982372;28;19929;-84
2021/01/17 12:36:00;;;;;;;;;;;;;;;4.36;79.69;99134.00;4965255;28;19926;-84
2021/01/17 12:38:25;;;;;;;;;;;;;;;4.21;80.70;99126.41;4964977;28;19953;-84
2021/01/17 12:40:50;;;;;;;;;;;;;;;4.67;79.37;99123.59;4980451;28;19922;-83
2021/01/17 12:43:15;;;;;;;;;;;;;;;4.28;80.18;99121.25;4965551;28;19920;-84
2021/01/17 12:45:41;;;;;;;;;;;;;;;4.22;80.45;99113.66;4981628;28;19921;-85
2021/01/17 12:48:06;;;;;;;;;;;;;;;4.90;78.80;99114.06;4965728;28;20740;-84
2021/01/17 12:50:32;;;;;;;;;;;;;;;5.65;76.75;99133.84;4981866;28;19910;-83
2021/01/17 12:52:57;;;;;;;;;;;;;;;5.74;75.87;99138.03;4981630;28;19947;-84
2021/01/17 12:55:22;;;;;;;;;;;;;;;6.32;72.75;99149.38;4965236;28;19914;-85
2021/01/17 12:57:47;;;;;;;;;;;;;;;4.10;82.07;99165.50;4966065;28;19917;-84